sensor_id;sensor_type;location;lat;lon;timestamp;pressure;altitude;pressure_sealevel;temperature;humidity
9764;BME280;4921;43.214;27.936;2023-07-13T00:01:14;101063.09;;;26.02;100.00
9764;BME280;4921;43.214;27.936;2023-07-13T00:03:41;101071.59;;;26.05;100.00
9764;BME280;4921;43.214;27.936;2023-07-13T00:06:09;101062.25;;;26.08;100.00
9764;BME280;4921;43.214;27.936;2023-07-13T00:08:37;101067.28;;;26.11;100.00
9764;BME280;4921;43.214;27.936;2023-07-13T00:11:14;101067.88;;;26.13;100.00
9764;BME280;4921;43.214;27.936;2023-07-13T00:13:42;101069.34;;;26.15;100.00
9764;BME280;4921;43.214;27.936;2023-07-13T00:16:11;101069.94;;;26.17;100.00
9764;BME280;4921;43.214;27.936;2023-07-13T00:18:39;101062.25;;;26.08;100.00
9764;BME280;4921;43.214;27.936;2023-07-13T00:21:07;101048.19;;;25.99;100.00
9764;BME280;4921;43.214;27.936;2023-07-13T00:23:35;101046.72;;;26.10;100.00
9764;BME280;4921;43.214;27.936;2023-07-13T00:26:03;101052.34;;;26.08;100.00
9764;BME280;4921;43.214;27.936;2023-07-13T00:28:31;101053.41;;;25.88;100.00
9764;BME280;4921;43.214;27.936;2023-07-13T00:30:58;101049.88;;;25.94;100.00
9764;BME280;4921;43.214;27.936;2023-07-13T00:33:27;101040.53;;;25.96;100.00
9764;BME280;4921;43.214;27.936;2023-07-13T00:35:56;101049.03;;;25.93;100.00
9764;BME280;4921;43.214;27.936;2023-07-13T00:38:23;101035.56;;;25.93;100.00
9764;BME280;4921;43.214;27.936;2023-07-13T00:40:50;101033.47;;;25.95;100.00
9764;BME280;4921;43.214;27.936;2023-07-13T00:43:18;101029.94;;;25.95;100.00
9764;BME280;4921;43.214;27.936;2023-07-13T00:49:02;101015.00;;;25.99;100.00
9764;BME280;4921;43.214;27.936;2023-07-13T00:51:34;101017.06;;;25.97;100.00
9764;BME280;4921;43.214;27.936;2023-07-13T00:54:05;101009.63;;;25.92;100.00
9764;BME280;4921;43.214;27.936;2023-07-13T00:56:34;101016.31;;;25.83;100.00
9764;BME280;4921;43.214;27.936;2023-07-13T00:59:03;101020.66;;;25.84;100.00
9764;BME280;4921;43.214;27.936;2023-07-13T01:01:33;101015.88;;;25.86;100.00
9764;BME280;4921;43.214;27.936;2023-07-13T01:04:03;101011.09;;;25.82;100.00
9764;BME280;4921;43.214;27.936;2023-07-13T01:06:34;101002.84;;;25.77;100.00
9764;BME280;4921;43.214;27.936;2023-07-13T01:09:02;100999.16;;;25.58;100.00
9764;BME280;4921;43.214;27.936;2023-07-13T01:11:30;101005.56;;;25.63;100.00
9764;BME280;4921;43.214;27.936;2023-07-13T01:14:01;101002.69;;;25.58;100.00
9764;BME280;4921;43.214;27.936;2023-07-13T01:16:33;101002.47;;;25.53;100.00
9764;BME280;4921;43.214;27.936;2023-07-13T01:19:07;100992.94;;;25.64;100.00
9764;BME280;4921;43.214;27.936;2023-07-13T01:21:40;100995.81;;;25.69;100.00
9764;BME280;4921;43.214;27.936;2023-07-13T01:24:09;100992.50;;;25.67;100.00
9764;BME280;4921;43.214;27.936;2023-07-13T01:26:37;100988.34;;;25.64;100.00
9764;BME280;4921;43.214;27.936;2023-07-13T01:29:12;100985.69;;;25.58;100.00
9764;BME280;4921;43.214;27.936;2023-07-13T01:31:40;100978.84;;;25.62;100.00
9764;BME280;4921;43.214;27.936;2023-07-13T01:34:07;100991.66;;;25.66;100.00
9764;BME280;4921;43.214;27.936;2023-07-13T01:36:34;100985.28;;;25.41;100.00
9764;BME280;4921;43.214;27.936;2023-07-13T01:39:03;100978.88;;;25.42;100.00
9764;BME280;4921;43.214;27.936;2023-07-13T01:41:30;100984.06;;;25.44;100.00
9764;BME280;4921;43.214;27.936;2023-07-13T01:43:57;100972.44;;;25.50;100.00
9764;BME280;4921;43.214;27.936;2023-07-13T01:46:24;100970.38;;;25.45;100.00
9764;BME280;4921;43.214;27.936;2023-07-13T01:48:51;100960.81;;;25.36;100.00
9764;BME280;4921;43.214;27.936;2023-07-13T01:51:19;100977.84;;;25.17;100.00
9764;BME280;4921;43.214;27.936;2023-07-13T01:53:46;100970.38;;;25.13;100.00
9764;BME280;4921;43.214;27.936;2023-07-13T01:56:14;100970.38;;;25.06;100.00
9764;BME280;4921;43.214;27.936;2023-07-13T01:58:41;100962.72;;;25.23;100.00
9764;BME280;4921;43.214;27.936;2023-07-13T02:01:08;100971.19;;;25.33;100.00
9764;BME280;4921;43.214;27.936;2023-07-13T02:03:35;100967.03;;;25.37;100.00
9764;BME280;4921;43.214;27.936;2023-07-13T02:06:02;100959.19;;;25.42;100.00
9764;BME280;4921;43.214;27.936;2023-07-13T02:08:30;100967.06;;;25.17;100.00
9764;BME280;4921;43.214;27.936;2023-07-13T02:10:57;100971.81;;;25.28;100.00
9764;BME280;4921;43.214;27.936;2023-07-13T02:13:26;100963.31;;;25.38;100.00
9764;BME280;4921;43.214;27.936;2023-07-13T02:15:53;100971.41;;;25.38;100.00
9764;BME280;4921;43.214;27.936;2023-07-13T02:18:20;100961.25;;;25.27;100.00
9764;BME280;4921;43.214;27.936;2023-07-13T02:20:47;100976.56;;;25.39;100.00
9764;BME280;4921;43.214;27.936;2023-07-13T02:23:14;100969.09;;;25.41;100.00
9764;BME280;4921;43.214;27.936;2023-07-13T02:25:41;100956.06;;;25.45;100.00
9764;BME280;4921;43.214;27.936;2023-07-13T02:28:09;100959.59;;;25.52;100.00
9764;BME280;4921;43.214;27.936;2023-07-13T02:30:37;100965.19;;;25.57;100.00
9764;BME280;4921;43.214;27.936;2023-07-13T02:33:05;100969.09;;;25.61;100.00
9764;BME280;4921;43.214;27.936;2023-07-13T02:35:32;100963.31;;;25.64;100.00
9764;BME280;4921;43.214;27.936;2023-07-13T02:37:58;100961.00;;;25.67;100.00
9764;BME280;4921;43.214;27.936;2023-07-13T02:40:25;100955.38;;;25.69;100.00
9764;BME280;4921;43.214;27.936;2023-07-13T02:42:52;100954.97;;;25.72;100.00
9764;BME280;4921;43.214;27.936;2023-07-13T02:45:19;100958.06;;;25.76;100.00
9764;BME280;4921;43.214;27.936;2023-07-13T02:47:48;100959.72;;;25.77;100.00
9764;BME280;4921;43.214;27.936;2023-07-13T02:50:15;100968.66;;;25.77;100.00
9764;BME280;4921;43.214;27.936;2023-07-13T02:52:42;100972.75;;;25.80;100.00
9764;BME280;4921;43.214;27.936;2023-07-13T02:55:09;100966.13;;;25.82;100.00
9764;BME280;4921;43.214;27.936;2023-07-13T02:57:36;100968.59;;;25.84;100.00
9764;BME280;4921;43.214;27.936;2023-07-13T03:00:05;100960.31;;;25.85;100.00
9764;BME280;4921;43.214;27.936;2023-07-13T03:02:33;100957.63;;;25.85;100.00
9764;BME280;4921;43.214;27.936;2023-07-13T03:05:03;100953.06;;;25.86;100.00
9764;BME280;4921;43.214;27.936;2023-07-13T03:07:30;100957.78;;;25.90;100.00
9764;BME280;4921;43.214;27.936;2023-07-13T03:09:58;100948.28;;;25.88;100.00
9764;BME280;4921;43.214;27.936;2023-07-13T03:12:25;100955.94;;;25.91;100.00
9764;BME280;4921;43.214;27.936;2023-07-13T03:14:53;100949.72;;;25.90;100.00
9764;BME280;4921;43.214;27.936;2023-07-13T03:17:22;100955.94;;;25.91;100.00
9764;BME280;4921;43.214;27.936;2023-07-13T03:19:49;100952.22;;;25.92;100.00
9764;BME280;4921;43.214;27.936;2023-07-13T03:22:18;100963.59;;;25.94;100.00
9764;BME280;4921;43.214;27.936;2023-07-13T03:24:45;100957.59;;;25.92;100.00
9764;BME280;4921;43.214;27.936;2023-07-13T03:27:15;100951.16;;;25.93;100.00
9764;BME280;4921;43.214;27.936;2023-07-13T03:29:42;100962.56;;;25.95;100.00
9764;BME280;4921;43.214;27.936;2023-07-13T03:32:09;100960.47;;;25.97;100.00
9764;BME280;4921;43.214;27.936;2023-07-13T03:34:36;100967.53;;;25.98;100.00
9764;BME280;4921;43.214;27.936;2023-07-13T03:37:03;100960.28;;;25.98;100.00
9764;BME280;4921;43.214;27.936;2023-07-13T03:39:32;100964.59;;;25.99;100.00
9764;BME280;4921;43.214;27.936;2023-07-13T03:41:59;100961.75;;;25.94;100.00
9764;BME280;4921;43.214;27.936;2023-07-13T03:44:26;100952.63;;;25.89;100.00
9764;BME280;4921;43.214;27.936;2023-07-13T03:46:53;100963.59;;;25.94;100.00
9764;BME280;4921;43.214;27.936;2023-07-13T03:49:20;100958.66;;;25.84;100.00
9764;BME280;4921;43.214;27.936;2023-07-13T03:51:47;100967.22;;;25.75;100.00
9764;BME280;4921;43.214;27.936;2023-07-13T03:54:14;100968.22;;;25.73;100.00
9764;BME280;4921;43.214;27.936;2023-07-13T03:56:42;100966.38;;;25.67;100.00
9764;BME280;4921;43.214;27.936;2023-07-13T03:59:09;100972.19;;;25.64;100.00
9764;BME280;4921;43.214;27.936;2023-07-13T04:01:36;100970.72;;;25.68;100.00
9764;BME280;4921;43.214;27.936;2023-07-13T04:04:03;100968.88;;;25.69;100.00
9764;BME280;4921;43.214;27.936;2023-07-13T04:06:31;100966.97;;;25.76;100.00
9764;BME280;4921;43.214;27.936;2023-07-13T04:09:00;100975.03;;;25.83;100.00
9764;BME280;4921;43.214;27.936;2023-07-13T04:11:30;100976.75;;;25.77;100.00
9764;BME280;4921;43.214;27.936;2023-07-13T04:13:59;100964.50;;;25.81;100.00
9764;BME280;4921;43.214;27.936;2023-07-13T04:16:26;100970.06;;;25.86;100.00
9764;BME280;4921;43.214;27.936;2023-07-13T04:18:55;100962.41;;;25.83;100.00
9764;BME280;4921;43.214;27.936;2023-07-13T04:21:25;100955.97;;;25.84;100.00
9764;BME280;4921;43.214;27.936;2023-07-13T04:23:53;100972.09;;;25.97;100.00
9764;BME280;4921;43.214;27.936;2023-07-13T04:26:20;100966.94;;;25.89;100.00
9764;BME280;4921;43.214;27.936;2023-07-13T04:28:48;100965.09;;;25.83;100.00
9764;BME280;4921;43.214;27.936;2023-07-13T04:31:17;100976.75;;;25.70;100.00
9764;BME280;4921;43.214;27.936;2023-07-13T04:33:44;100970.91;;;25.80;100.00
9764;BME280;4921;43.214;27.936;2023-07-13T04:36:11;100979.97;;;25.92;100.00
9764;BME280;4921;43.214;27.936;2023-07-13T04:38:38;100981.22;;;25.96;100.00
9764;BME280;4921;43.214;27.936;2023-07-13T04:41:07;100985.97;;;26.01;100.00
9764;BME280;4921;43.214;27.936;2023-07-13T04:43:35;100981.63;;;26.00;100.00
9764;BME280;4921;43.214;27.936;2023-07-13T04:46:08;100986.41;;;25.91;100.00
9764;BME280;4921;43.214;27.936;2023-07-13T04:48:37;100983.97;;;25.83;100.00
9764;BME280;4921;43.214;27.936;2023-07-13T04:51:04;100983.34;;;25.88;100.00
9764;BME280;4921;43.214;27.936;2023-07-13T04:53:33;100984.50;;;26.05;100.00
9764;BME280;4921;43.214;27.936;2023-07-13T04:56:01;100991.97;;;26.16;100.00
9764;BME280;4921;43.214;27.936;2023-07-13T04:58:28;100988.41;;;26.22;100.00
9764;BME280;4921;43.214;27.936;2023-07-13T05:00:59;100995.00;;;26.32;100.00
9764;BME280;4921;43.214;27.936;2023-07-13T05:03:26;100993.91;;;26.40;100.00
9764;BME280;4921;43.214;27.936;2023-07-13T05:06:00;100982.91;;;26.41;100.00
9764;BME280;4921;43.214;27.936;2023-07-13T05:08:27;100990.13;;;26.48;100.00
9764;BME280;4921;43.214;27.936;2023-07-13T05:10:54;100986.97;;;26.51;100.00
9764;BME280;4921;43.214;27.936;2023-07-13T05:13:22;100988.22;;;26.55;100.00
9764;BME280;4921;43.214;27.936;2023-07-13T05:15:55;100995.00;;;26.64;100.00
9764;BME280;4921;43.214;27.936;2023-07-13T05:18:23;100989.81;;;26.62;100.00
9764;BME280;4921;43.214;27.936;2023-07-13T05:20:59;100996.44;;;26.35;100.00
9764;BME280;4921;43.214;27.936;2023-07-13T05:23:29;100995.91;;;26.13;100.00
9764;BME280;4921;43.214;27.936;2023-07-13T05:25:56;101002.56;;;26.11;100.00
9764;BME280;4921;43.214;27.936;2023-07-13T05:28:24;101001.88;;;26.22;100.00
9764;BME280;4921;43.214;27.936;2023-07-13T05:30:51;100998.81;;;26.12;100.00
9764;BME280;4921;43.214;27.936;2023-07-13T05:33:19;101000.81;;;26.23;100.00
9764;BME280;4921;43.214;27.936;2023-07-13T05:35:46;101001.19;;;26.39;100.00
9764;BME280;4921;43.214;27.936;2023-07-13T05:38:15;101006.88;;;26.56;100.00
9764;BME280;4921;43.214;27.936;2023-07-13T05:40:43;101008.22;;;26.40;100.00
9764;BME280;4921;43.214;27.936;2023-07-13T05:43:10;101001.78;;;26.41;100.00
9764;BME280;4921;43.214;27.936;2023-07-13T05:45:37;101005.69;;;26.52;100.00
9764;BME280;4921;43.214;27.936;2023-07-13T05:48:04;101012.47;;;26.61;100.00
9764;BME280;4921;43.214;27.936;2023-07-13T05:50:31;101013.25;;;26.68;100.00
9764;BME280;4921;43.214;27.936;2023-07-13T05:52:58;101012.34;;;26.81;100.00
9764;BME280;4921;43.214;27.936;2023-07-13T05:55:26;101007.50;;;26.89;100.00
9764;BME280;4921;43.214;27.936;2023-07-13T05:57:54;101008.91;;;26.98;100.00
9764;BME280;4921;43.214;27.936;2023-07-13T06:00:21;101013.88;;;27.01;100.00
9764;BME280;4921;43.214;27.936;2023-07-13T06:02:48;101014.44;;;27.10;100.00
9764;BME280;4921;43.214;27.936;2023-07-13T06:05:15;101020.44;;;27.12;100.00
9764;BME280;4921;43.214;27.936;2023-07-13T06:07:43;101002.09;;;27.20;100.00
9764;BME280;4921;43.214;27.936;2023-07-13T06:10:10;101013.13;;;27.19;100.00
9764;BME280;4921;43.214;27.936;2023-07-13T06:12:38;101005.44;;;27.16;100.00
9764;BME280;4921;43.214;27.936;2023-07-13T06:15:07;101007.00;;;27.30;100.00
9764;BME280;4921;43.214;27.936;2023-07-13T06:17:34;101008.59;;;27.38;100.00
9764;BME280;4921;43.214;27.936;2023-07-13T06:20:01;101010.22;;;27.45;100.00
9764;BME280;4921;43.214;27.936;2023-07-13T06:22:29;101012.69;;;27.47;100.00
9764;BME280;4921;43.214;27.936;2023-07-13T06:24:55;101009.38;;;27.45;100.00
9764;BME280;4921;43.214;27.936;2023-07-13T06:27:22;101014.06;;;27.56;100.00
9764;BME280;4921;43.214;27.936;2023-07-13T06:29:51;101005.13;;;27.55;100.00
9764;BME280;4921;43.214;27.936;2023-07-13T06:32:18;101013.16;;;27.62;100.00
9764;BME280;4921;43.214;27.936;2023-07-13T06:34:48;101009.13;;;27.71;100.00
9764;BME280;4921;43.214;27.936;2023-07-13T06:37:17;101011.16;;;27.75;100.00
9764;BME280;4921;43.214;27.936;2023-07-13T06:39:44;101006.09;;;27.79;100.00
9764;BME280;4921;43.214;27.936;2023-07-13T06:42:11;101007.91;;;27.85;100.00
9764;BME280;4921;43.214;27.936;2023-07-13T06:44:38;101012.56;;;27.60;100.00
9764;BME280;4921;43.214;27.936;2023-07-13T06:47:07;101016.84;;;27.18;100.00
9764;BME280;4921;43.214;27.936;2023-07-13T06:49:34;101010.16;;;26.96;100.00
9764;BME280;4921;43.214;27.936;2023-07-13T06:52:01;101009.91;;;27.04;100.00
9764;BME280;4921;43.214;27.936;2023-07-13T06:54:29;101004.16;;;26.94;100.00
9764;BME280;4921;43.214;27.936;2023-07-13T06:56:56;101003.69;;;27.03;100.00
9764;BME280;4921;43.214;27.936;2023-07-13T06:59:23;101017.41;;;26.64;100.00
9764;BME280;4921;43.214;27.936;2023-07-13T07:01:50;101010.75;;;26.73;100.00
9764;BME280;4921;43.214;27.936;2023-07-13T07:04:18;101010.59;;;26.62;100.00
9764;BME280;4921;43.214;27.936;2023-07-13T07:06:45;101017.03;;;26.61;100.00
9764;BME280;4921;43.214;27.936;2023-07-13T07:09:12;101007.47;;;26.65;100.00
9764;BME280;4921;43.214;27.936;2023-07-13T07:11:39;101017.28;;;26.53;100.00
9764;BME280;4921;43.214;27.936;2023-07-13T07:14:07;101010.47;;;26.81;100.00
9764;BME280;4921;43.214;27.936;2023-07-13T07:16:34;101008.91;;;26.67;100.00
9764;BME280;4921;43.214;27.936;2023-07-13T07:19:01;101010.34;;;26.76;100.00
9764;BME280;4921;43.214;27.936;2023-07-13T07:21:30;101008.88;;;26.74;100.00
9764;BME280;4921;43.214;27.936;2023-07-13T07:23:57;101006.41;;;26.66;100.00
9764;BME280;4921;43.214;27.936;2023-07-13T07:26:25;101003.78;;;26.53;100.00
9764;BME280;4921;43.214;27.936;2023-07-13T07:28:52;101008.94;;;26.61;100.00
9764;BME280;4921;43.214;27.936;2023-07-13T07:31:19;101005.34;;;26.73;100.00
9764;BME280;4921;43.214;27.936;2023-07-13T07:33:46;101004.75;;;26.65;100.00
9764;BME280;4921;43.214;27.936;2023-07-13T07:36:15;101005.41;;;26.60;100.00
9764;BME280;4921;43.214;27.936;2023-07-13T07:38:43;101010.44;;;26.57;100.00
9764;BME280;4921;43.214;27.936;2023-07-13T07:41:11;101006.41;;;26.66;100.00
9764;BME280;4921;43.214;27.936;2023-07-13T07:43:38;101009.94;;;26.66;100.00
9764;BME280;4921;43.214;27.936;2023-07-13T07:46:04;101004.06;;;26.82;100.00
9764;BME280;4921;43.214;27.936;2023-07-13T07:48:32;101011.31;;;26.82;100.00
9764;BME280;4921;43.214;27.936;2023-07-13T07:50:59;101010.94;;;26.78;100.00
9764;BME280;4921;43.214;27.936;2023-07-13T07:53:26;101011.69;;;26.85;100.00
9764;BME280;4921;43.214;27.936;2023-07-13T07:55:54;101006.09;;;26.87;100.00
9764;BME280;4921;43.214;27.936;2023-07-13T07:58:21;101017.16;;;26.79;100.00
9764;BME280;4921;43.214;27.936;2023-07-13T08:00:48;101017.41;;;26.64;100.00
9764;BME280;4921;43.214;27.936;2023-07-13T08:03:15;101011.38;;;26.69;100.00
9764;BME280;4921;43.214;27.936;2023-07-13T08:05:42;101013.50;;;26.60;100.00
9764;BME280;4921;43.214;27.936;2023-07-13T08:08:09;101014.34;;;26.61;100.00
9764;BME280;4921;43.214;27.936;2023-07-13T08:10:36;101011.75;;;26.72;100.00
9764;BME280;4921;43.214;27.936;2023-07-13T08:13:05;101003.06;;;26.70;100.00
9764;BME280;4921;43.214;27.936;2023-07-13T08:15:33;101017.16;;;26.79;100.00
9764;BME280;4921;43.214;27.936;2023-07-13T08:18:01;101013.84;;;26.77;100.00
9764;BME280;4921;43.214;27.936;2023-07-13T08:20:28;101015.38;;;26.60;100.00
9764;BME280;4921;43.214;27.936;2023-07-13T08:22:55;101012.03;;;26.64;100.00
9764;BME280;4921;43.214;27.936;2023-07-13T08:25:22;101010.53;;;26.68;100.00
9764;BME280;4921;43.214;27.936;2023-07-13T08:27:50;101007.69;;;26.63;100.00
9764;BME280;4921;43.214;27.936;2023-07-13T08:30:18;101007.53;;;26.52;100.00
9764;BME280;4921;43.214;27.936;2023-07-13T08:32:47;101010.66;;;26.48;100.00
9764;BME280;4921;43.214;27.936;2023-07-13T08:35:16;101002.38;;;26.50;100.00
9764;BME280;4921;43.214;27.936;2023-07-13T08:37:43;101009.00;;;26.48;100.00
9764;BME280;4921;43.214;27.936;2023-07-13T08:40:11;101007.06;;;26.61;100.00
9764;BME280;4921;43.214;27.936;2023-07-13T08:42:42;101008.50;;;26.64;100.00
9764;BME280;4921;43.214;27.936;2023-07-13T08:45:17;101011.00;;;26.65;100.00
9764;BME280;4921;43.214;27.936;2023-07-13T08:47:52;101013.78;;;26.83;100.00
9764;BME280;4921;43.214;27.936;2023-07-13T08:50:25;101009.19;;;26.90;100.00
9764;BME280;4921;43.214;27.936;2023-07-13T08:52:59;101006.91;;;26.87;100.00
9764;BME280;4921;43.214;27.936;2023-07-13T08:55:30;101001.41;;;26.69;100.00
9764;BME280;4921;43.214;27.936;2023-07-13T08:58:03;101006.66;;;26.95;100.00
9764;BME280;4921;43.214;27.936;2023-07-13T09:00:40;101014.59;;;26.90;100.00
9764;BME280;4921;43.214;27.936;2023-07-13T09:03:19;101005.00;;;26.94;100.00
9764;BME280;4921;43.214;27.936;2023-07-13T09:05:51;101008.25;;;27.03;100.00
9764;BME280;4921;43.214;27.936;2023-07-13T09:08:37;101005.13;;;27.06;100.00
9764;BME280;4921;43.214;27.936;2023-07-13T09:11:20;101003.16;;;27.13;100.00
9764;BME280;4921;43.214;27.936;2023-07-13T09:13:59;101003.72;;;26.97;100.00
9764;BME280;4921;43.214;27.936;2023-07-13T09:16:28;101002.41;;;27.06;100.00
9764;BME280;4921;43.214;27.936;2023-07-13T09:19:02;100995.72;;;27.15;100.00
9764;BME280;4921;43.214;27.936;2023-07-13T09:21:32;101006.78;;;27.32;100.00
9764;BME280;4921;43.214;27.936;2023-07-13T09:24:35;101009.44;;;27.38;100.00
9764;BME280;4921;43.214;27.936;2023-07-13T09:27:12;101004.66;;;27.58;100.00
9764;BME280;4921;43.214;27.936;2023-07-13T09:29:47;101011.22;;;27.87;100.00
9764;BME280;4921;43.214;27.936;2023-07-13T09:32:18;101004.03;;;27.99;100.00
9764;BME280;4921;43.214;27.936;2023-07-13T09:34:53;101006.78;;;28.11;100.00
9764;BME280;4921;43.214;27.936;2023-07-13T09:37:21;101001.69;;;28.21;100.00
9764;BME280;4921;43.214;27.936;2023-07-13T09:39:49;100999.69;;;28.28;100.00
9764;BME280;4921;43.214;27.936;2023-07-13T09:42:21;100997.84;;;28.28;100.00
9764;BME280;4921;43.214;27.936;2023-07-13T09:44:54;100992.25;;;28.41;100.00
9764;BME280;4921;43.214;27.936;2023-07-13T09:47:23;100984.72;;;28.43;100.00
9764;BME280;4921;43.214;27.936;2023-07-13T09:49:59;100990.03;;;28.68;100.00
9764;BME280;4921;43.214;27.936;2023-07-13T09:52:29;100995.28;;;28.63;100.00
9764;BME280;4921;43.214;27.936;2023-07-13T09:55:23;100986.06;;;28.52;100.00
9764;BME280;4921;43.214;27.936;2023-07-13T09:57:51;100977.91;;;28.82;100.00
9764;BME280;4921;43.214;27.936;2023-07-13T10:00:23;100996.09;;;29.05;100.00
9764;BME280;4921;43.214;27.936;2023-07-13T10:02:59;100984.59;;;29.32;100.00
9764;BME280;4921;43.214;27.936;2023-07-13T10:05:28;100985.78;;;29.25;100.00
9764;BME280;4921;43.214;27.936;2023-07-13T10:07:56;100976.59;;;29.26;100.00
9764;BME280;4921;43.214;27.936;2023-07-13T10:10:23;100979.16;;;29.21;100.00
9764;BME280;4921;43.214;27.936;2023-07-13T10:12:50;100978.34;;;29.20;100.00
9764;BME280;4921;43.214;27.936;2023-07-13T10:15:19;100980.94;;;29.27;100.00
9764;BME280;4921;43.214;27.936;2023-07-13T10:17:48;100967.25;;;29.10;100.00
9764;BME280;4921;43.214;27.936;2023-07-13T10:20:16;100968.41;;;29.03;100.00
9764;BME280;4921;43.214;27.936;2023-07-13T10:22:50;100972.34;;;29.18;100.00
9764;BME280;4921;43.214;27.936;2023-07-13T10:25:19;100962.34;;;29.30;100.00
9764;BME280;4921;43.214;27.936;2023-07-13T10:27:50;100966.81;;;29.36;100.00
9764;BME280;4921;43.214;27.936;2023-07-13T10:30:20;100955.84;;;29.43;100.00
9764;BME280;4921;43.214;27.936;2023-07-13T10:32:51;100956.88;;;29.77;100.00
9764;BME280;4921;43.214;27.936;2023-07-13T10:35:20;100958.94;;;29.98;100.00
9764;BME280;4921;43.214;27.936;2023-07-13T10:37:51;100952.63;;;29.46;100.00
9764;BME280;4921;43.214;27.936;2023-07-13T10:40:25;100950.28;;;29.38;100.00
9764;BME280;4921;43.214;27.936;2023-07-13T10:42:57;100953.50;;;29.35;100.00
9764;BME280;4921;43.214;27.936;2023-07-13T10:45:24;100940.88;;;29.29;100.00
9764;BME280;4921;43.214;27.936;2023-07-13T10:47:54;100950.75;;;29.47;100.00
9764;BME280;4921;43.214;27.936;2023-07-13T10:50:23;100929.41;;;28.92;100.00
9764;BME280;4921;43.214;27.936;2023-07-13T10:52:54;100945.91;;;29.02;100.00
9764;BME280;4921;43.214;27.936;2023-07-13T10:55:33;100948.78;;;29.19;100.00
9764;BME280;4921;43.214;27.936;2023-07-13T10:58:02;100949.50;;;29.26;100.00
9764;BME280;4921;43.214;27.936;2023-07-13T11:00:43;100946.06;;;29.30;100.00
9764;BME280;4921;43.214;27.936;2023-07-13T11:03:14;100937.56;;;29.50;100.00
9764;BME280;4921;43.214;27.936;2023-07-13T11:05:42;100948.88;;;29.35;100.00
9764;BME280;4921;43.214;27.936;2023-07-13T11:08:19;100950.06;;;29.39;100.00
9764;BME280;4921;43.214;27.936;2023-07-13T11:10:52;100947.78;;;29.71;100.00
9764;BME280;4921;43.214;27.936;2023-07-13T11:13:54;100947.31;;;29.74;100.00
9764;BME280;4921;43.214;27.936;2023-07-13T11:16:50;100944.72;;;29.79;100.00
9764;BME280;4921;43.214;27.936;2023-07-13T11:19:37;100940.50;;;29.49;100.00
9764;BME280;4921;43.214;27.936;2023-07-13T11:22:16;100943.47;;;29.47;100.00
9764;BME280;4921;43.214;27.936;2023-07-13T11:24:56;100958.31;;;29.45;100.00
9764;BME280;4921;43.214;27.936;2023-07-13T11:27:42;100958.81;;;29.42;100.00
9764;BME280;4921;43.214;27.936;2023-07-13T11:30:22;100942.03;;;29.56;100.00
9764;BME280;4921;43.214;27.936;2023-07-13T11:32:52;100942.47;;;29.76;100.00
9764;BME280;4921;43.214;27.936;2023-07-13T11:35:33;100945.50;;;29.91;100.00
9764;BME280;4921;43.214;27.936;2023-07-13T11:38:01;100949.69;;;29.82;100.00
9764;BME280;4921;43.214;27.936;2023-07-13T11:40:30;100946.97;;;29.82;100.00
9764;BME280;4921;43.214;27.936;2023-07-13T11:43:14;100948.41;;;29.50;100.00
9764;BME280;4921;43.214;27.936;2023-07-13T11:45:41;100948.50;;;29.55;100.00
9764;BME280;4921;43.214;27.936;2023-07-13T11:48:23;100946.88;;;29.54;100.00
9764;BME280;4921;43.214;27.936;2023-07-13T11:50:57;100943.91;;;29.44;100.00
9764;BME280;4921;43.214;27.936;2023-07-13T11:53:39;100942.91;;;29.22;100.00
9764;BME280;4921;43.214;27.936;2023-07-13T11:56:08;100924.47;;;29.01;100.00
9764;BME280;4921;43.214;27.936;2023-07-13T11:58:36;100927.78;;;29.14;100.00
9764;BME280;4921;43.214;27.936;2023-07-13T12:01:03;100930.84;;;29.18;100.00
9764;BME280;4921;43.214;27.936;2023-07-13T12:03:32;100933.06;;;28.98;100.00
9764;BME280;4921;43.214;27.936;2023-07-13T12:06:01;100925.53;;;28.88;100.00
9764;BME280;4921;43.214;27.936;2023-07-13T12:08:31;100927.63;;;28.86;100.00
9764;BME280;4921;43.214;27.936;2023-07-13T12:11:00;100921.53;;;29.02;100.00
9764;BME280;4921;43.214;27.936;2023-07-13T12:13:35;100919.53;;;28.98;100.00
9764;BME280;4921;43.214;27.936;2023-07-13T12:16:11;100919.22;;;29.17;100.00
9764;BME280;4921;43.214;27.936;2023-07-13T12:18:39;100926.94;;;29.14;100.00
9764;BME280;4921;43.214;27.936;2023-07-13T12:21:13;100930.25;;;29.04;100.00
9764;BME280;4921;43.214;27.936;2023-07-13T12:23:43;100929.31;;;28.87;100.00
9764;BME280;4921;43.214;27.936;2023-07-13T12:26:11;100928.00;;;28.78;100.00
9764;BME280;4921;43.214;27.936;2023-07-13T12:28:46;100915.97;;;28.86;100.00
9764;BME280;4921;43.214;27.936;2023-07-13T12:31:35;100918.84;;;29.02;100.00
9764;BME280;4921;43.214;27.936;2023-07-13T12:34:07;100917.97;;;28.90;100.00
9764;BME280;4921;43.214;27.936;2023-07-13T12:36:39;100920.34;;;28.87;100.00
9764;BME280;4921;43.214;27.936;2023-07-13T12:39:14;100920.59;;;28.85;100.00
9764;BME280;4921;43.214;27.936;2023-07-13T12:41:43;100900.56;;;28.75;100.00
9764;BME280;4921;43.214;27.936;2023-07-13T12:44:17;100893.59;;;28.67;100.00
9764;BME280;4921;43.214;27.936;2023-07-13T12:46:56;100884.47;;;28.50;100.00
9764;BME280;4921;43.214;27.936;2023-07-13T12:49:26;100895.59;;;28.72;100.00
9764;BME280;4921;43.214;27.936;2023-07-13T12:52:10;100899.72;;;28.86;100.00
9764;BME280;4921;43.214;27.936;2023-07-13T12:54:41;100890.91;;;29.02;100.00
9764;BME280;4921;43.214;27.936;2023-07-13T12:57:15;100881.03;;;28.96;100.00
9764;BME280;4921;43.214;27.936;2023-07-13T12:59:45;100878.63;;;28.64;100.00
9764;BME280;4921;43.214;27.936;2023-07-13T13:02:30;100877.13;;;28.57;100.00
9764;BME280;4921;43.214;27.936;2023-07-13T13:05:03;100875.00;;;28.71;100.00
9764;BME280;4921;43.214;27.936;2023-07-13T13:07:30;100854.00;;;28.54;100.00